Time;durP1;ratioP1;P1;durP2;ratioP2;P2;SDS_P1;SDS_P2;PMS_P1;PMS_P2;Temp;Humidity;BMP_temperature;BMP_pressure;BME280_temperature;BME280_humidity;BME280_pressure;Samples;Min_cycle;Max_cycle;Signal;HPM_P1;HPM_P2
2023/11/13 00:02:04;;;;;;;;;;;;;;;;;;5025691;28;20012;-59
2023/11/13 00:04:30;;;;;;;;;;;;;;;;;;5022154;28;19925;-59
2023/11/13 00:06:57;;;;;;;;;;;;;;;;;;5031911;28;20000;-61
2023/11/13 00:09:24;;;;;;;;;;;;;;;;;;5019359;28;19972;-58
2023/11/13 00:11:50;;;;;;;;;;;;;;;;;;5032341;28;20273;-59
2023/11/13 00:14:17;;;;;;;;;;;;;;;;;;5034724;28;19975;-58
2023/11/13 00:16:43;;;;;;;;;;;;;;;;;;5034717;28;19975;-55
2023/11/13 00:19:11;;;;;;;;;;;;;;;;;;5029766;28;19961;-57
2023/11/13 00:21:38;;;;;;;;;;;;;;;;;;5028956;28;19986;-60
2023/11/13 00:24:05;;;;;;;;;;;;;;;;;;5024360;28;20337;-57
2023/11/13 00:26:31;;;;;;;;;;;;;;;;;;5027912;28;20373;-60
2023/11/13 00:28:58;;;;;;;;;;;;;;;;;;5032181;28;19975;-57
2023/11/13 00:31:24;;;;;;;;;;;;;;;;;;5034690;28;20277;-59
2023/11/13 00:33:51;;;;;;;;;;;;;;;;;;5034332;28;19975;-57
2023/11/13 00:36:19;;;;;;;;;;;;;;;;;;5029894;28;19937;-60
2023/11/13 00:38:45;;;;;;;;;;;;;;;;;;5027442;28;20008;-58
2023/11/13 00:41:12;;;;;;;;;;;;;;;;;;5034498;28;19921;-59
2023/11/13 00:43:39;;;;;;;;;;;;;;;;;;5034289;28;19953;-57
2023/11/13 00:46:06;;;;;;;;;;;;;;;;;;5034183;28;20442;-55
2023/11/13 00:48:32;;;;;;;;;;;;;;;;;;5034678;28;19967;-60
2023/11/13 00:50:59;;;;;;;;;;;;;;;;;;5033536;28;19927;-58
2023/11/13 00:53:27;;;;;;;;;;;;;;;;;;5034607;28;20003;-59
2023/11/13 00:55:53;;;;;;;;;;;;;;;;;;5034661;28;20422;-59
2023/11/13 00:58:24;;;;;;;;;;;;;;;;;;5034217;28;19928;-58
2023/11/13 01:00:50;;;;;;;;;;;;;;;;;;5033928;28;20361;-59
2023/11/13 01:03:17;;;;;;;;;;;;;;;;;;5033898;28;19929;-58
2023/11/13 01:05:43;;;;;;;;;;;;;;;;;;5034345;28;20019;-58
2023/11/13 01:08:11;;;;;;;;;;;;;;;;;;5025985;28;19921;-58
2023/11/13 01:10:39;;;;;;;;;;;;;;;;;;5033767;28;20015;-58
2023/11/13 01:13:06;;;;;;;;;;;;;;;;;;5033655;28;19936;-60
2023/11/13 01:15:33;;;;;;;;;;;;;;;;;;5033852;28;19928;-59
2023/11/13 01:17:59;;;;;;;;;;;;;;;;;;5033652;28;19929;-59
2023/11/13 01:20:27;;;;;;;;;;;;;;;;;;5033277;28;20394;-59
2023/11/13 01:22:54;;;;;;;;;;;;;;;;;;5029325;28;19921;-59
2023/11/13 01:25:20;;;;;;;;;;;;;;;;;;5033357;28;19961;-57
2023/11/13 01:27:48;;;;;;;;;;;;;;;;;;5033429;28;20035;-59
2023/11/13 01:30:15;;;;;;;;;;;;;;;;;;5038490;28;19925;-58
2023/11/13 01:32:41;;;;;;;;;;;;;;;;;;5033389;28;19944;-57
2023/11/13 01:35:08;;;;;;;;;;;;;;;;;;5033235;28;19921;-57
2023/11/13 01:37:34;;;;;;;;;;;;;;;;;;5033266;28;20303;-60
2023/11/13 01:40:03;;;;;;;;;;;;;;;;;;5032725;28;20303;-58
2023/11/13 01:42:29;;;;;;;;;;;;;;;;;;5033417;28;19920;-59
2023/11/13 01:44:58;;;;;;;;;;;;;;;;;;5033101;28;19960;-56
2023/11/13 01:47:25;;;;;;;;;;;;;;;;;;5033354;28;20334;-57
2023/11/13 01:49:52;;;;;;;;;;;;;;;;;;5033689;28;19987;-58
2023/11/13 01:52:19;;;;;;;;;;;;;;;;;;5033038;28;19921;-57
2023/11/13 01:54:45;;;;;;;;;;;;;;;;;;5033055;28;19921;-59
2023/11/13 01:57:12;;;;;;;;;;;;;;;;;;5033131;28;19921;-60
2023/11/13 01:59:39;;;;;;;;;;;;;;;;;;5033038;28;20349;-57
2023/11/13 02:02:07;;;;;;;;;;;;;;;;;;5032477;28;19947;-58
2023/11/13 02:04:34;;;;;;;;;;;;;;;;;;5032435;28;19987;-60
2023/11/13 02:07:01;;;;;;;;;;;;;;;;;;5032696;28;20375;-58
2023/11/13 02:09:28;;;;;;;;;;;;;;;;;;5032839;28;19921;-58
2023/11/13 02:11:55;;;;;;;;;;;;;;;;;;5032662;28;19925;-60
2023/11/13 02:14:21;;;;;;;;;;;;;;;;;;5032480;28;20343;-59
2023/11/13 02:16:47;;;;;;;;;;;;;;;;;;5032650;28;20416;-59
2023/11/13 02:19:16;;;;;;;;;;;;;;;;;;5031939;28;19967;-61
2023/11/13 02:21:43;;;;;;;;;;;;;;;;;;5030433;28;20011;-60
2023/11/13 02:24:12;;;;;;;;;;;;;;;;;;5030400;28;19928;-58
2023/11/13 02:26:38;;;;;;;;;;;;;;;;;;5032093;28;19927;-60
2023/11/13 02:29:05;;;;;;;;;;;;;;;;;;5032641;28;20009;-58
2023/11/13 02:31:32;;;;;;;;;;;;;;;;;;5032773;28;19960;-56
2023/11/13 02:33:58;;;;;;;;;;;;;;;;;;5032352;28;20091;-58
2023/11/13 02:36:24;;;;;;;;;;;;;;;;;;5032102;28;19983;-59
2023/11/13 02:38:51;;;;;;;;;;;;;;;;;;5031621;28;20023;-60
2023/11/13 02:41:19;;;;;;;;;;;;;;;;;;5032003;28;19927;-58
2023/11/13 02:43:45;;;;;;;;;;;;;;;;;;5031903;28;19924;-58
2023/11/13 02:46:12;;;;;;;;;;;;;;;;;;5032207;28;19968;-57
2023/11/13 02:48:38;;;;;;;;;;;;;;;;;;5032234;28;19964;-56
2023/11/13 02:51:05;;;;;;;;;;;;;;;;;;5032010;28;20144;-57
2023/11/13 02:53:31;;;;;;;;;;;;;;;;;;5031943;28;19943;-58
2023/11/13 02:55:58;;;;;;;;;;;;;;;;;;5031032;28;19922;-58
2023/11/13 02:58:26;;;;;;;;;;;;;;;;;;5031770;28;19921;-57
2023/11/13 03:00:52;;;;;;;;;;;;;;;;;;5032044;28;20353;-58
2023/11/13 03:03:19;;;;;;;;;;;;;;;;;;5031644;28;19921;-58
2023/11/13 03:05:45;;;;;;;;;;;;;;;;;;5031993;28;19927;-59
2023/11/13 03:08:12;;;;;;;;;;;;;;;;;;5031219;28;20011;-58
2023/11/13 03:10:38;;;;;;;;;;;;;;;;;;5031745;28;19921;-59
2023/11/13 03:13:05;;;;;;;;;;;;;;;;;;5031581;28;19925;-57
2023/11/13 03:15:33;;;;;;;;;;;;;;;;;;5031214;28;20420;-57
2023/11/13 03:17:59;;;;;;;;;;;;;;;;;;5031843;28;19921;-58
2023/11/13 03:20:26;;;;;;;;;;;;;;;;;;5031350;28;20024;-57
2023/11/13 03:22:52;;;;;;;;;;;;;;;;;;5031498;28;19921;-56
2023/11/13 03:25:19;;;;;;;;;;;;;;;;;;5029629;28;20448;-57
2023/11/13 03:27:45;;;;;;;;;;;;;;;;;;5030893;28;20353;-57
2023/11/13 03:30:13;;;;;;;;;;;;;;;;;;5031735;28;20414;-56
2023/11/13 03:32:42;;;;;;;;;;;;;;;;;;5031712;28;19920;-57
2023/11/13 03:35:08;;;;;;;;;;;;;;;;;;5031366;28;19921;-56
2023/11/13 03:37:35;;;;;;;;;;;;;;;;;;5031515;28;19972;-57
2023/11/13 03:40:02;;;;;;;;;;;;;;;;;;5031955;28;19928;-58
2023/11/13 03:42:28;;;;;;;;;;;;;;;;;;5031603;28;19921;-60
2023/11/13 03:44:55;;;;;;;;;;;;;;;;;;5031077;28;20008;-57
2023/11/13 03:47:21;;;;;;;;;;;;;;;;;;5031154;28;20015;-57
2023/11/13 03:49:49;;;;;;;;;;;;;;;;;;5031480;28;20012;-55
2023/11/13 03:52:16;;;;;;;;;;;;;;;;;;5031410;28;19928;-57
2023/11/13 03:54:42;;;;;;;;;;;;;;;;;;5029652;28;19921;-57
2023/11/13 03:57:10;;;;;;;;;;;;;;;;;;5027340;28;19964;-56
2023/11/13 03:59:36;;;;;;;;;;;;;;;;;;5027700;28;20555;-57
2023/11/13 04:02:03;;;;;;;;;;;;;;;;;;5022200;28;19994;-57
2023/11/13 04:04:29;;;;;;;;;;;;;;;;;;5031159;28;20004;-55
2023/11/13 04:06:57;;;;;;;;;;;;;;;;;;5030462;28;19968;-56
2023/11/13 04:09:23;;;;;;;;;;;;;;;;;;5031170;28;19921;-56
2023/11/13 04:11:50;;;;;;;;;;;;;;;;;;5031206;28;19964;-57
2023/11/13 04:14:17;;;;;;;;;;;;;;;;;;5031221;28;19928;-60
2023/11/13 04:16:44;;;;;;;;;;;;;;;;;;5031076;28;19956;-59
2023/11/13 04:19:10;;;;;;;;;;;;;;;;;;5031084;28;20446;-56
2023/11/13 04:21:36;;;;;;;;;;;;;;;;;;5030977;28;19925;-60
2023/11/13 04:24:05;;;;;;;;;;;;;;;;;;5030333;28;20405;-57
2023/11/13 04:26:32;;;;;;;;;;;;;;;;;;5031855;28;19921;-58
2023/11/13 04:28:58;;;;;;;;;;;;;;;;;;5034773;28;19925;-60
2023/11/13 04:31:25;;;;;;;;;;;;;;;;;;5034847;28;20017;-57
2023/11/13 04:33:51;;;;;;;;;;;;;;;;;;5034154;28;19960;-58
2023/11/13 04:36:18;;;;;;;;;;;;;;;;;;5034311;28;19956;-57
2023/11/13 04:38:44;;;;;;;;;;;;;;;;;;5034615;28;19979;-59
2023/11/13 04:41:15;;;;;;;;;;;;;;;;;;5034763;28;19920;-54
2023/11/13 04:43:42;;;;;;;;;;;;;;;;;;5034754;28;19928;-57
2023/11/13 04:46:08;;;;;;;;;;;;;;;;;;5034767;28;19925;-58
2023/11/13 04:48:35;;;;;;;;;;;;;;;;;;5034960;28;20027;-60
2023/11/13 04:51:01;;;;;;;;;;;;;;;;;;5034488;28;19921;-60
2023/11/13 04:53:28;;;;;;;;;;;;;;;;;;5034422;28;20382;-57
2023/11/13 04:55:54;;;;;;;;;;;;;;;;;;5033830;28;20388;-59
2023/11/13 04:58:22;;;;;;;;;;;;;;;;;;5034152;28;19929;-58
2023/11/13 05:00:48;;;;;;;;;;;;;;;;;;5034555;28;20437;-59
2023/11/13 05:03:15;;;;;;;;;;;;;;;;;;5034392;28;19951;-57
2023/11/13 05:05:42;;;;;;;;;;;;;;;;;;5032907;28;19990;-61
2023/11/13 05:08:08;;;;;;;;;;;;;;;;;;5032105;28;20303;-58
2023/11/13 05:10:35;;;;;;;;;;;;;;;;;;5033901;28;20399;-58
2023/11/13 05:13:01;;;;;;;;;;;;;;;;;;5034037;28;19975;-56
2023/11/13 05:15:29;;;;;;;;;;;;;;;;;;5033763;28;20415;-61
2023/11/13 05:17:56;;;;;;;;;;;;;;;;;;5033392;28;19940;-59
2023/11/13 05:20:22;;;;;;;;;;;;;;;;;;5033965;28;20311;-56
2023/11/13 05:22:50;;;;;;;;;;;;;;;;;;5033501;28;19921;-59
2023/11/13 05:25:17;;;;;;;;;;;;;;;;;;5033883;28;19967;-57
2023/11/13 05:27:43;;;;;;;;;;;;;;;;;;5032872;28;19921;-58
2023/11/13 05:30:12;;;;;;;;;;;;;;;;;;5033403;28;20008;-57
2023/11/13 05:32:39;;;;;;;;;;;;;;;;;;5033866;28;20015;-56
2023/11/13 05:35:06;;;;;;;;;;;;;;;;;;5033204;28;20024;-58
2023/11/13 05:37:33;;;;;;;;;;;;;;;;;;5032837;28;19925;-59
2023/11/13 05:40:00;;;;;;;;;;;;;;;;;;5033330;28;20067;-58
2023/11/13 05:42:27;;;;;;;;;;;;;;;;;;5031026;28;19928;-58
2023/11/13 05:44:54;;;;;;;;;;;;;;;;;;5029671;28;19943;-61
2023/11/13 05:47:20;;;;;;;;;;;;;;;;;;5032772;28;19928;-59
2023/11/13 05:49:48;;;;;;;;;;;;;;;;;;5032163;28;19976;-57
2023/11/13 05:52:14;;;;;;;;;;;;;;;;;;5032384;28;20402;-58
2023/11/13 05:54:41;;;;;;;;;;;;;;;;;;5032001;28;19956;-58
2023/11/13 05:57:07;;;;;;;;;;;;;;;;;;5032859;28;20408;-59
2023/11/13 05:59:34;;;;;;;;;;;;;;;;;;5032621;28;19927;-60
2023/11/13 06:02:00;;;;;;;;;;;;;;;;;;5031523;28;20432;-58
2023/11/13 06:04:27;;;;;;;;;;;;;;;;;;5032883;28;20039;-58
2023/11/13 06:06:55;;;;;;;;;;;;;;;;;;5032989;28;20308;-58
2023/11/13 06:09:21;;;;;;;;;;;;;;;;;;5032777;28;19964;-55
2023/11/13 06:11:48;;;;;;;;;;;;;;;;;;5032754;28;20391;-57
2023/11/13 06:14:15;;;;;;;;;;;;;;;;;;5032770;28;19921;-59
2023/11/13 06:16:41;;;;;;;;;;;;;;;;;;5032424;28;20000;-55
2023/11/13 06:19:07;;;;;;;;;;;;;;;;;;5031634;28;20032;-58
2023/11/13 06:21:34;;;;;;;;;;;;;;;;;;5031264;28;20011;-59
2023/11/13 06:24:03;;;;;;;;;;;;;;;;;;5031832;28;19920;-58
2023/11/13 06:26:29;;;;;;;;;;;;;;;;;;5035032;28;20287;-59
2023/11/13 06:28:56;;;;;;;;;;;;;;;;;;5033174;28;20371;-59
2023/11/13 06:31:22;;;;;;;;;;;;;;;;;;5031205;28;20004;-58
2023/11/13 06:33:49;;;;;;;;;;;;;;;;;;5032119;28;19964;-57
2023/11/13 06:36:15;;;;;;;;;;;;;;;;;;5031422;28;19929;-58
2023/11/13 06:38:42;;;;;;;;;;;;;;;;;;5031182;28;19925;-57
2023/11/13 06:41:11;;;;;;;;;;;;;;;;;;5030990;28;19932;-58
2023/11/13 06:43:37;;;;;;;;;;;;;;;;;;5031416;28;19925;-58
2023/11/13 06:46:04;;;;;;;;;;;;;;;;;;5031067;28;20260;-60
2023/11/13 06:48:30;;;;;;;;;;;;;;;;;;5030573;28;19968;-59
2023/11/13 06:50:57;;;;;;;;;;;;;;;;;;5032204;28;19925;-60
2023/11/13 06:53:25;;;;;;;;;;;;;;;;;;5031449;28;19982;-60
2023/11/13 06:55:51;;;;;;;;;;;;;;;;;;5029419;28;19921;-58
2023/11/13 06:58:19;;;;;;;;;;;;;;;;;;5031240;28;20346;-55
2023/11/13 07:00:46;;;;;;;;;;;;;;;;;;5030923;28;20270;-58
2023/11/13 07:03:13;;;;;;;;;;;;;;;;;;5030957;28;20007;-57
2023/11/13 07:05:40;;;;;;;;;;;;;;;;;;5031215;28;20294;-57
2023/11/13 07:08:06;;;;;;;;;;;;;;;;;;5030999;28;20007;-56
2023/11/13 07:10:35;;;;;;;;;;;;;;;;;;5032234;28;20012;-58
2023/11/13 07:13:02;;;;;;;;;;;;;;;;;;5032166;28;19928;-57
2023/11/13 07:15:30;;;;;;;;;;;;;;;;;;5032526;28;20004;-57
2023/11/13 07:17:57;;;;;;;;;;;;;;;;;;5031889;28;19928;-59
2023/11/13 07:20:23;;;;;;;;;;;;;;;;;;5031601;28;20418;-58
2023/11/13 07:22:50;;;;;;;;;;;;;;;;;;5030862;28;20012;-61
2023/11/13 07:25:16;;;;;;;;;;;;;;;;;;5028673;28;19948;-58
2023/11/13 07:27:43;;;;;;;;;;;;;;;;;;5029877;28;19975;-57
2023/11/13 07:30:10;;;;;;;;;;;;;;;;;;5030423;28;19972;-57
2023/11/13 07:32:37;;;;;;;;;;;;;;;;;;5029190;28;20393;-60
2023/11/13 07:35:04;;;;;;;;;;;;;;;;;;5029874;28;19925;-57
2023/11/13 07:37:32;;;;;;;;;;;;;;;;;;5029500;28;19921;-58
2023/11/13 07:39:59;;;;;;;;;;;;;;;;;;5028399;28;19921;-60
2023/11/13 07:42:26;;;;;;;;;;;;;;;;;;5027349;28;20364;-57
2023/11/13 07:44:55;;;;;;;;;;;;;;;;;;5028780;28;20011;-57
2023/11/13 07:47:26;;;;;;;;;;;;;;;;;;5030149;28;19968;-59
2023/11/13 07:49:56;;;;;;;;;;;;;;;;;;5029086;28;19928;-55
2023/11/13 07:52:23;;;;;;;;;;;;;;;;;;5030935;28;19921;-58
2023/11/13 07:54:50;;;;;;;;;;;;;;;;;;5026514;28;20346;-57
2023/11/13 07:57:17;;;;;;;;;;;;;;;;;;5027493;28;20305;-58
2023/11/13 07:59:46;;;;;;;;;;;;;;;;;;5025603;28;19921;-55
2023/11/13 08:02:13;;;;;;;;;;;;;;;;;;5030848;28;20007;-57
2023/11/13 08:04:40;;;;;;;;;;;;;;;;;;5035128;28;20526;-57
2023/11/13 08:07:08;;;;;;;;;;;;;;;;;;5035038;28;20385;-58
2023/11/13 08:09:34;;;;;;;;;;;;;;;;;;5035175;28;19967;-59
2023/11/13 08:12:01;;;;;;;;;;;;;;;;;;5035295;28;19972;-60
2023/11/13 08:14:28;;;;;;;;;;;;;;;;;;5032244;28;19952;-57
2023/11/13 08:16:54;;;;;;;;;;;;;;;;;;5022477;28;20004;-59
2023/11/13 08:19:20;;;;;;;;;;;;;;;;;;5031149;28;20348;-57
2023/11/13 08:21:47;;;;;;;;;;;;;;;;;;5031661;28;19921;-57
2023/11/13 08:24:19;;;;;;;;;;;;;;;;;;5029942;28;20004;-59
2023/11/13 08:26:46;;;;;;;;;;;;;;;;;;5026996;28;19956;-58
2023/11/13 08:29:15;;;;;;;;;;;;;;;;;;5031452;28;20395;-58
2023/11/13 08:31:41;;;;;;;;;;;;;;;;;;5031583;28;20022;-60
2023/11/13 08:34:08;;;;;;;;;;;;;;;;;;5032339;28;19996;-55
2023/11/13 08:36:34;;;;;;;;;;;;;;;;;;5032399;28;19921;-61
2023/11/13 08:39:01;;;;;;;;;;;;;;;;;;5032613;28;20498;-56
2023/11/13 08:41:32;;;;;;;;;;;;;;;;;;5031947;28;19951;-57
2023/11/13 08:43:58;;;;;;;;;;;;;;;;;;5032503;28;19967;-57
2023/11/13 08:46:25;;;;;;;;;;;;;;;;;;5031356;28;20299;-58
2023/11/13 08:48:52;;;;;;;;;;;;;;;;;;5032047;28;19947;-58
2023/11/13 08:51:18;;;;;;;;;;;;;;;;;;5031764;28;20388;-57
2023/11/13 08:53:46;;;;;;;;;;;;;;;;;;5030414;28;20111;-59
2023/11/13 08:56:15;;;;;;;;;;;;;;;;;;5030514;28;19921;-61
2023/11/13 08:58:43;;;;;;;;;;;;;;;;;;5027374;28;20414;-55
2023/11/13 09:01:09;;;;;;;;;;;;;;;;;;5030621;28;19921;-58
2023/11/13 09:03:37;;;;;;;;;;;;;;;;;;5032204;28;20004;-57
2023/11/13 09:06:08;;;;;;;;;;;;;;;;;;5031528;28;20044;-59
2023/11/13 09:08:36;;;;;;;;;;;;;;;;;;5029133;28;20020;-58
2023/11/13 09:11:04;;;;;;;;;;;;;;;;;;5032484;28;20034;-59
2023/11/13 09:13:30;;;;;;;;;;;;;;;;;;5031333;28;19921;-58
2023/11/13 09:15:59;;;;;;;;;;;;;;;;;;5029984;28;20457;-59
2023/11/13 09:18:26;;;;;;;;;;;;;;;;;;5031545;28;20372;-57
2023/11/13 09:20:55;;;;;;;;;;;;;;;;;;5032724;28;20348;-59
2023/11/13 09:23:21;;;;;;;;;;;;;;;;;;5032482;28;19925;-58
2023/11/13 09:25:48;;;;;;;;;;;;;;;;;;5032230;28;20004;-58
2023/11/13 09:28:15;;;;;;;;;;;;;;;;;;5032787;28;20008;-58
2023/11/13 09:30:41;;;;;;;;;;;;;;;;;;5031993;28;19928;-58
2023/11/13 09:33:10;;;;;;;;;;;;;;;;;;5032692;28;20000;-58
2023/11/13 09:35:37;;;;;;;;;;;;;;;;;;5032067;28;19975;-56
2023/11/13 09:38:04;;;;;;;;;;;;;;;;;;5029973;28;20008;-59
2023/11/13 09:40:31;;;;;;;;;;;;;;;;;;5032163;28;20310;-59
2023/11/13 09:43:06;;;;;;;;;;;;;;;;;;5029885;28;19928;-59
2023/11/13 09:45:32;;;;;;;;;;;;;;;;;;5032198;28;19991;-56
2023/11/13 09:48:00;;;;;;;;;;;;;;;;;;5031586;28;19971;-58
2023/11/13 09:50:28;;;;;;;;;;;;;;;;;;5030147;28;20392;-56
2023/11/13 09:52:57;;;;;;;;;;;;;;;;;;5030611;28;19967;-58
2023/11/13 09:55:24;;;;;;;;;;;;;;;;;;5031851;28;20009;-59
2023/11/13 09:57:52;;;;;;;;;;;;;;;;;;5032171;28;19921;-58
2023/11/13 10:00:19;;;;;;;;;;;;;;;;;;5027070;28;19921;-60
2023/11/13 10:02:47;;;;;;;;;;;;;;;;;;5027086;28;20380;-57
2023/11/13 10:05:15;;;;;;;;;;;;;;;;;;5032430;28;20384;-55
2023/11/13 10:07:44;;;;;;;;;;;;;;;;;;5032222;28;19943;-59
2023/11/13 10:10:17;;;;;;;;;;;;;;;;;;5031795;28;19921;-62
2023/11/13 10:12:44;;;;;;;;;;;;;;;;;;5032315;28;19947;-58
2023/11/13 10:15:13;;;;;;;;;;;;;;;;;;5031815;28;20401;-55
2023/11/13 10:17:43;;;;;;;;;;;;;;;;;;5026679;28;19931;-63
2023/11/13 10:20:10;;;;;;;;;;;;;;;;;;5029010;28;19994;-59
2023/11/13 10:22:37;;;;;;;;;;;;;;;;;;5027449;28;19921;-60
2023/11/13 10:25:11;;;;;;;;;;;;;;;;;;5021418;28;19921;-58
2023/11/13 10:27:39;;;;;;;;;;;;;;;;;;5031634;28;19921;-58
2023/11/13 10:30:07;;;;;;;;;;;;;;;;;;5026155;28;19939;-54
2023/11/13 10:32:33;;;;;;;;;;;;;;;;;;5020547;28;19921;-57
2023/11/13 10:35:00;;;;;;;;;;;;;;;;;;5018768;28;19932;-58
2023/11/13 10:37:26;;;;;;;;;;;;;;;;;;5024642;28;20296;-60
2023/11/13 10:39:53;;;;;;;;;;;;;;;;;;5028301;28;19921;-60
2023/11/13 10:42:23;;;;;;;;;;;;;;;;;;5022990;28;20008;-65
2023/11/13 10:44:50;;;;;;;;;;;;;;;;;;5022308;28;20363;-62
2023/11/13 10:47:20;;;;;;;;;;;;;;;;;;5026599;28;20450;-57
2023/11/13 10:49:48;;;;;;;;;;;;;;;;;;5021544;28;19937;-60
2023/11/13 10:52:16;;;;;;;;;;;;;;;;;;5030390;28;19921;-57
2023/11/13 10:54:44;;;;;;;;;;;;;;;;;;5029190;28;19921;-58
2023/11/13 10:57:10;;;;;;;;;;;;;;;;;;5025369;28;19925;-57
2023/11/13 10:59:39;;;;;;;;;;;;;;;;;;5026433;28;20423;-57
2023/11/13 11:02:10;;;;;;;;;;;;;;;;;;5026213;28;20395;-57
2023/11/13 11:04:39;;;;;;;;;;;;;;;;;;5026644;28;20003;-57
2023/11/13 11:07:06;;;;;;;;;;;;;;;;;;5030236;28;19921;-58
2023/11/13 11:09:34;;;;;;;;;;;;;;;;;;5030417;28;20016;-59
2023/11/13 11:12:03;;;;;;;;;;;;;;;;;;5030530;28;20383;-56
2023/11/13 11:14:36;;;;;;;;;;;;;;;;;;5027888;28;19925;-58
2023/11/13 11:17:06;;;;;;;;;;;;;;;;;;5030124;28;20423;-57
2023/11/13 11:19:35;;;;;;;;;;;;;;;;;;5030342;28;19928;-57
2023/11/13 11:22:06;;;;;;;;;;;;;;;;;;5030216;28;20351;-59
2023/11/13 11:24:49;;;;;;;;;;;;;;;;;;5026291;28;19928;-57
2023/11/13 11:27:30;;;;;;;;;;;;;;;;;;5028641;28;20303;-58
2023/11/13 11:29:57;;;;;;;;;;;;;;;;;;5028963;28;20280;-55
2023/11/13 11:32:25;;;;;;;;;;;;;;;;;;5030679;28;20392;-59
2023/11/13 11:35:01;;;;;;;;;;;;;;;;;;5029433;28;20368;-58
2023/11/13 11:37:27;;;;;;;;;;;;;;;;;;5032376;28;19921;-58
2023/11/13 11:39:55;;;;;;;;;;;;;;;;;;5034680;28;20015;-58
2023/11/13 11:42:23;;;;;;;;;;;;;;;;;;5035025;28;19928;-54
2023/11/13 11:45:07;;;;;;;;;;;;;;;;;;5034134;28;20025;-56
2023/11/13 11:47:36;;;;;;;;;;;;;;;;;;5032761;28;19929;-57
2023/11/13 11:50:12;;;;;;;;;;;;;;;;;;5030147;28;19927;-57
2023/11/13 11:52:42;;;;;;;;;;;;;;;;;;5034305;28;19928;-59
2023/11/13 11:55:12;;;;;;;;;;;;;;;;;;5034487;28;19927;-58
2023/11/13 11:57:42;;;;;;;;;;;;;;;;;;5030957;28;20372;-59
2023/11/13 12:00:09;;;;;;;;;;;;;;;;;;5031447;28;19929;-59
2023/11/13 12:02:37;;;;;;;;;;;;;;;;;;5030060;28;20296;-57
2023/11/13 12:05:07;;;;;;;;;;;;;;;;;;5030513;28;19921;-60
2023/11/13 12:07:34;;;;;;;;;;;;;;;;;;5028585;28;19991;-58
2023/11/13 12:10:04;;;;;;;;;;;;;;;;;;5028238;28;19925;-57
2023/11/13 12:12:31;;;;;;;;;;;;;;;;;;5027898;28;19968;-58
2023/11/13 12:14:57;;;;;;;;;;;;;;;;;;5034021;28;19920;-57
2023/11/13 12:17:24;;;;;;;;;;;;;;;;;;5033805;28;19921;-58
2023/11/13 12:19:52;;;;;;;;;;;;;;;;;;5034638;28;20087;-58
2023/11/13 12:22:21;;;;;;;;;;;;;;;;;;5034468;28;20008;-59
2023/11/13 12:24:48;;;;;;;;;;;;;;;;;;5033373;28;19924;-57
2023/11/13 12:27:15;;;;;;;;;;;;;;;;;;5033195;28;20401;-57
2023/11/13 12:29:42;;;;;;;;;;;;;;;;;;5027926;28;19925;-60
2023/11/13 12:32:09;;;;;;;;;;;;;;;;;;5029588;28;20183;-58
2023/11/13 12:34:37;;;;;;;;;;;;;;;;;;5022620;28;20022;-59
2023/11/13 12:37:08;;;;;;;;;;;;;;;;;;5030497;28;19979;-58
2023/11/13 12:39:37;;;;;;;;;;;;;;;;;;5031899;28;20191;-59
2023/11/13 12:42:03;;;;;;;;;;;;;;;;;;5031287;28;19921;-56
2023/11/13 12:44:30;;;;;;;;;;;;;;;;;;5032825;28;19921;-58
2023/11/13 12:46:57;;;;;;;;;;;;;;;;;;5032361;28;20004;-59
2023/11/13 12:49:24;;;;;;;;;;;;;;;;;;5032418;28;19967;-57
2023/11/13 12:51:51;;;;;;;;;;;;;;;;;;5028074;28;19936;-59
2023/11/13 12:54:19;;;;;;;;;;;;;;;;;;5030222;28;19921;-57
2023/11/13 12:56:46;;;;;;;;;;;;;;;;;;5031878;28;20355;-58
2023/11/13 12:59:15;;;;;;;;;;;;;;;;;;5030407;28;20372;-54
2023/11/13 13:01:41;;;;;;;;;;;;;;;;;;5032863;28;19925;-59
2023/11/13 13:04:10;;;;;;;;;;;;;;;;;;5029202;28;19928;-59
2023/11/13 13:06:38;;;;;;;;;;;;;;;;;;5032619;28;19994;-59
2023/11/13 13:09:05;;;;;;;;;;;;;;;;;;5032716;28;19983;-57
2023/11/13 13:11:34;;;;;;;;;;;;;;;;;;5031903;28;19927;-57
2023/11/13 13:14:02;;;;;;;;;;;;;;;;;;5031444;28;20336;-58
2023/11/13 13:16:29;;;;;;;;;;;;;;;;;;5025903;28;20325;-56
2023/11/13 13:18:56;;;;;;;;;;;;;;;;;;5032634;28;19969;-58
2023/11/13 13:21:25;;;;;;;;;;;;;;;;;;5032788;28;19927;-58
2023/11/13 13:23:51;;;;;;;;;;;;;;;;;;5032901;28;19925;-59
2023/11/13 13:26:20;;;;;;;;;;;;;;;;;;5032566;28;20307;-56
2023/11/13 13:28:48;;;;;;;;;;;;;;;;;;5032428;28;20431;-58
2023/11/13 13:31:16;;;;;;;;;;;;;;;;;;5031725;28;19936;-58
2023/11/13 13:33:42;;;;;;;;;;;;;;;;;;5031428;28;19932;-59
2023/11/13 13:36:09;;;;;;;;;;;;;;;;;;5029978;28;20364;-58
2023/11/13 13:38:36;;;;;;;;;;;;;;;;;;5028327;28;20012;-58
2023/11/13 13:41:04;;;;;;;;;;;;;;;;;;5031749;28;20407;-58
2023/11/13 13:43:30;;;;;;;;;;;;;;;;;;5030323;28;19972;-58
2023/11/13 13:45:58;;;;;;;;;;;;;;;;;;5028673;28;19925;-59
2023/11/13 13:48:25;;;;;;;;;;;;;;;;;;5031562;28;19920;-58
2023/11/13 13:50:52;;;;;;;;;;;;;;;;;;5031727;28;20310;-59
2023/11/13 13:53:21;;;;;;;;;;;;;;;;;;5028281;28;19972;-57
2023/11/13 13:55:47;;;;;;;;;;;;;;;;;;5029771;28;19929;-58
2023/11/13 13:58:14;;;;;;;;;;;;;;;;;;5031155;28;19927;-58
2023/11/13 14:00:40;;;;;;;;;;;;;;;;;;5031380;28;19979;-59
2023/11/13 14:03:08;;;;;;;;;;;;;;;;;;5031243;28;19928;-57
2023/11/13 14:05:37;;;;;;;;;;;;;;;;;;5031451;28;19922;-57
2023/11/13 14:08:04;;;;;;;;;;;;;;;;;;5028761;28;20134;-55
2023/11/13 14:10:34;;;;;;;;;;;;;;;;;;5020163;28;20453;-57
2023/11/13 14:13:01;;;;;;;;;;;;;;;;;;5027056;28;19970;-57
2023/11/13 14:15:27;;;;;;;;;;;;;;;;;;5023142;28;21832;-62
2023/11/13 14:17:54;;;;;;;;;;;;;;;;;;5019137;28;20292;-60
2023/11/13 14:20:23;;;;;;;;;;;;;;;;;;5027798;28;19975;-59
2023/11/13 14:22:51;;;;;;;;;;;;;;;;;;5030922;28;20040;-58
2023/11/13 14:25:20;;;;;;;;;;;;;;;;;;5025220;28;19922;-60
2023/11/13 14:27:50;;;;;;;;;;;;;;;;;;5021195;28;19936;-56
2023/11/13 14:30:18;;;;;;;;;;;;;;;;;;5025678;28;19920;-58
2023/11/13 14:32:45;;;;;;;;;;;;;;;;;;5022427;28;20288;-59
2023/11/13 14:35:12;;;;;;;;;;;;;;;;;;5030896;28;19975;-60
2023/11/13 14:37:40;;;;;;;;;;;;;;;;;;5031160;28;20384;-56
2023/11/13 14:40:09;;;;;;;;;;;;;;;;;;5029213;28;20239;-57
2023/11/13 14:42:36;;;;;;;;;;;;;;;;;;5030520;28;19964;-58
2023/11/13 14:45:04;;;;;;;;;;;;;;;;;;5022965;28;19932;-59
2023/11/13 14:47:35;;;;;;;;;;;;;;;;;;5028773;28;19960;-59
2023/11/13 14:50:02;;;;;;;;;;;;;;;;;;5021037;28;19944;-60
2023/11/13 14:52:29;;;;;;;;;;;;;;;;;;5024804;28;19921;-59
2023/11/13 14:54:58;;;;;;;;;;;;;;;;;;5029065;28;19964;-57
2023/11/13 14:57:24;;;;;;;;;;;;;;;;;;5023914;28;19928;-57
2023/11/13 14:59:51;;;;;;;;;;;;;;;;;;5027572;28;19929;-60
2023/11/13 15:02:17;;;;;;;;;;;;;;;;;;5018530;28;19964;-58
2023/11/13 15:04:44;;;;;;;;;;;;;;;;;;5024700;28;19921;-58
2023/11/13 15:07:10;;;;;;;;;;;;;;;;;;5030313;28;19963;-59
2023/11/13 15:09:37;;;;;;;;;;;;;;;;;;5030495;28;19962;-58
2023/11/13 15:12:05;;;;;;;;;;;;;;;;;;5030239;28;20008;-59
2023/11/13 15:14:31;;;;;;;;;;;;;;;;;;5024009;28;19925;-58
2023/11/13 15:16:59;;;;;;;;;;;;;;;;;;5027074;28;20390;-57
2023/11/13 15:19:25;;;;;;;;;;;;;;;;;;5026433;28;19921;-58
2023/11/13 15:21:51;;;;;;;;;;;;;;;;;;5027808;28;20016;-57
2023/11/13 15:24:20;;;;;;;;;;;;;;;;;;5022859;28;20240;-58
2023/11/13 15:26:47;;;;;;;;;;;;;;;;;;5028210;28;19974;-59
2023/11/13 15:29:15;;;;;;;;;;;;;;;;;;5029423;28;20347;-58
2023/11/13 15:31:42;;;;;;;;;;;;;;;;;;5029723;28;20444;-57
2023/11/13 15:34:08;;;;;;;;;;;;;;;;;;5029006;28;19925;-55
2023/11/13 15:36:35;;;;;;;;;;;;;;;;;;5026369;28;20007;-59
2023/11/13 15:39:04;;;;;;;;;;;;;;;;;;5024453;28;20253;-56
2023/11/13 15:41:30;;;;;;;;;;;;;;;;;;5023483;28;19921;-57
2023/11/13 15:43:57;;;;;;;;;;;;;;;;;;5026053;28;20007;-58
2023/11/13 15:46:26;;;;;;;;;;;;;;;;;;5029181;28;20244;-57
2023/11/13 15:48:53;;;;;;;;;;;;;;;;;;5027286;28;19929;-59
2023/11/13 15:51:19;;;;;;;;;;;;;;;;;;5028506;28;19975;-58
2023/11/13 15:53:45;;;;;;;;;;;;;;;;;;5027423;28;19921;-59
2023/11/13 15:56:12;;;;;;;;;;;;;;;;;;5024977;28;19964;-59
2023/11/13 15:58:39;;;;;;;;;;;;;;;;;;5026957;28;19927;-57
2023/11/13 16:01:07;;;;;;;;;;;;;;;;;;5028648;28;19967;-57
2023/11/13 16:03:35;;;;;;;;;;;;;;;;;;5025076;28;19986;-60
2023/11/13 16:06:03;;;;;;;;;;;;;;;;;;5025676;28;19927;-57
2023/11/13 16:08:30;;;;;;;;;;;;;;;;;;5022937;28;20023;-57
2023/11/13 16:10:56;;;;;;;;;;;;;;;;;;5022131;28;20042;-57
2023/11/13 16:13:24;;;;;;;;;;;;;;;;;;5024908;28;19935;-59
2023/11/13 16:15:50;;;;;;;;;;;;;;;;;;5026435;28;19925;-57
2023/11/13 16:18:17;;;;;;;;;;;;;;;;;;5030027;28;19947;-58
2023/11/13 16:20:44;;;;;;;;;;;;;;;;;;5030148;28;19974;-59
2023/11/13 16:23:11;;;;;;;;;;;;;;;;;;5032126;28;19960;-59
2023/11/13 16:25:37;;;;;;;;;;;;;;;;;;5033582;28;19967;-58
2023/11/13 16:28:04;;;;;;;;;;;;;;;;;;5032984;28;19925;-58
2023/11/13 16:30:31;;;;;;;;;;;;;;;;;;5033788;28;20015;-60
2023/11/13 16:32:59;;;;;;;;;;;;;;;;;;5033648;28;19921;-58
2023/11/13 16:35:26;;;;;;;;;;;;;;;;;;5033500;28;20365;-57
2023/11/13 16:37:54;;;;;;;;;;;;;;;;;;5033111;28;19967;-58
2023/11/13 16:40:21;;;;;;;;;;;;;;;;;;5033385;28;20008;-58
2023/11/13 16:42:48;;;;;;;;;;;;;;;;;;5033195;28;19921;-58
2023/11/13 16:45:14;;;;;;;;;;;;;;;;;;5033419;28;20480;-58
2023/11/13 16:47:42;;;;;;;;;;;;;;;;;;5033305;28;20008;-60